F/V Le Dolmen — FHMD — position and weather

sailwx.info

Track history (hours):
 
Tides and Currents Weather Stations Pressure Air Temp Water Temp Dewpoint Dewpoint Depression Visibility Wind Speed Wind Dir Waves Ship Positions

F/V Le Dolmen

Last reported at 2015-Jan-30 07:33 UTC. Time now 2015-Jan-31 03:59 UTC.
Position N 47°44' W 003°22'.

Length 18 m.

Type: Fishing. MMSI: 228374000.

Date/timePositionNaut miles runAvg speedWind from/ knotsBaromVisibWave heightAir tempDewpointWater temp
2015-Jan-30 07:33N 47°44' W 003°22'0 0.0
2015-Jan-30 06:33N 47°44' W 003°22'0 0.0
2015-Jan-30 05:33N 47°44' W 003°22'0 0.0
2015-Jan-30 04:33N 47°44' W 003°22'0 0.0
2015-Jan-30 03:33N 47°44' W 003°22'0 0.0
2015-Jan-30 02:33N 47°44' W 003°22'0 0.0
2015-Jan-30 01:33N 47°44' W 003°22'0 0.0
2015-Jan-30 00:33N 47°44' W 003°22'0 0.0
2015-Jan-29 23:33N 47°44' W 003°22'0 0.0
2015-Jan-29 22:33N 47°44' W 003°22'1 0.9
2015-Jan-29 21:33N 47°43' W 003°22'8 8.0
2015-Jan-29 20:34N 47°35' W 003°21'  
2015-Jan-27 02:15N 47°26' W 003°08'6 8.4
2015-Jan-27 01:33N 47°31' W 003°13'9 8.9
2015-Jan-27 00:33N 47°38' W 003°20'6 5.8
2015-Jan-26 23:33N 47°44' W 003°22'  
2015-Jan-24 03:19N 47°44' W 003°22'0 0.0
2015-Jan-24 02:34N 47°44' W 003°22'0 0.0
2015-Jan-24 01:33N 47°44' W 003°22'0 0.1
2015-Jan-24 00:34N 47°44' W 003°22'5 4.8
2015-Jan-23 23:34N 47°39' W 003°20'  
2015-Jan-21 03:31N 46°31' W 002°07'8 7.8
2015-Jan-21 02:33N 46°29' W 001°57'6 6.1
2015-Jan-21 01:33N 46°30' W 001°48'0 0.3
2015-Jan-21 00:33N 46°30' W 001°48'1 0.5
2015-Jan-20 23:34N 46°29' W 001°47'8 8.3
2015-Jan-20 22:33N 46°28' W 001°59'9 8.9
2015-Jan-20 21:33N 46°28' W 002°12'  
Track history (hours):
 
Tides and Currents Weather Stations Pressure Air Temp Water Temp Dewpoint Dewpoint Depression Visibility Wind Speed Wind Dir Waves Ship Positions

F/V Le Dolmen

Last reported at 2015-Jan-30 07:33 UTC. Time now 2015-Jan-31 03:59 UTC.
Position N 47°44' W 003°22'.

Length 18 m.

Type: Fishing. MMSI: 228374000.

Date/timePositionNaut miles runAvg speedWind from/ knotsBaromVisibWave heightAir tempDewpointWater temp
2015-Jan-30 07:33N 47°44' W 003°22'0 0.0
2015-Jan-30 06:33N 47°44' W 003°22'0 0.0
2015-Jan-30 05:33N 47°44' W 003°22'0 0.0
2015-Jan-30 04:33N 47°44' W 003°22'0 0.0
2015-Jan-30 03:33N 47°44' W 003°22'0 0.0
2015-Jan-30 02:33N 47°44' W 003°22'0 0.0
2015-Jan-30 01:33N 47°44' W 003°22'0 0.0
2015-Jan-30 00:33N 47°44' W 003°22'0 0.0
2015-Jan-29 23:33N 47°44' W 003°22'0 0.0
2015-Jan-29 22:33N 47°44' W 003°22'1 0.9
2015-Jan-29 21:33N 47°43' W 003°22'8 8.0
2015-Jan-29 20:34N 47°35' W 003°21'  
2015-Jan-27 02:15N 47°26' W 003°08'6 8.4
2015-Jan-27 01:33N 47°31' W 003°13'9 8.9
2015-Jan-27 00:33N 47°38' W 003°20'6 5.8
2015-Jan-26 23:33N 47°44' W 003°22'  
2015-Jan-24 03:19N 47°44' W 003°22'0 0.0
2015-Jan-24 02:34N 47°44' W 003°22'0 0.0
2015-Jan-24 01:33N 47°44' W 003°22'0 0.1
2015-Jan-24 00:34N 47°44' W 003°22'5 4.8
2015-Jan-23 23:34N 47°39' W 003°20'  
2015-Jan-21 03:31N 46°31' W 002°07'8 7.8
2015-Jan-21 02:33N 46°29' W 001°57'6 6.1
2015-Jan-21 01:33N 46°30' W 001°48'0 0.3
2015-Jan-21 00:33N 46°30' W 001°48'1 0.5
2015-Jan-20 23:34N 46°29' W 001°47'8 8.3
2015-Jan-20 22:33N 46°28' W 001°59'9 8.9
2015-Jan-20 21:33N 46°28' W 002°12'  

Dump ship's entire track history